Time;durP1;ratioP1;P1;durP2;ratioP2;P2;SDS_P1;SDS_P2;PMS_P1;PMS_P2;Temp;Humidity;BMP_temperature;BMP_pressure;BME280_temperature;BME280_humidity;BME280_pressure;Samples;Min_cycle;Max_cycle;Signal;HPM_P1;HPM_P2
2022/07/25 00:01:33;;;;;;;18.52;14.03;;;;;;;21.34;100.00;100260.96;1781724;80;21002;-80
2022/07/25 00:04:01;;;;;;;17.25;13.83;;;;;;;21.32;100.00;100261.59;1781268;80;21012;-80
2022/07/25 00:06:29;;;;;;;18.95;13.88;;;;;;;21.31;100.00;100263.39;1781267;79;21064;-81
2022/07/25 00:08:58;;;;;;;18.50;13.18;;;;;;;21.31;100.00;100267.32;1771722;80;21031;-79
2022/07/25 00:11:27;;;;;;;16.62;13.45;;;;;;;21.35;100.00;100270.45;1781200;80;21004;-79
2022/07/25 00:13:55;;;;;;;16.27;13.95;;;;;;;21.32;100.00;100268.14;1781193;80;21019;-79
2022/07/25 00:16:24;;;;;;;15.03;12.88;;;;;;;21.31;100.00;100266.01;1781209;80;21078;-78
2022/07/25 00:18:52;;;;;;;20.15;14.10;;;;;;;21.31;100.00;100267.32;1771805;80;21490;-78
2022/07/25 00:21:25;;;;;;;19.02;13.18;;;;;;;21.33;100.00;100263.22;1781242;80;21011;-80
2022/07/25 00:23:52;;;;;;;17.95;13.10;;;;;;;21.33;100.00;100265.38;1780147;80;21459;-80
2022/07/25 00:26:21;;;;;;;15.85;12.78;;;;;;;21.31;100.00;100269.09;1780729;80;21016;-80
2022/07/25 00:28:48;;;;;;;14.55;12.43;;;;;;;21.31;100.00;100267.32;1780963;80;21035;-80
2022/07/25 00:31:17;;;;;;;14.28;12.23;;;;;;;21.29;100.00;100271.88;1781373;80;21512;-79
2022/07/25 00:33:46;;;;;;;17.90;13.10;;;;;;;21.30;100.00;100268.77;1780685;80;21082;-79
2022/07/25 00:36:13;;;;;;;15.13;13.20;;;;;;;21.30;100.00;100266.14;1781236;80;21079;-80
2022/07/25 00:38:40;;;;;;;17.67;13.13;;;;;;;21.29;100.00;100266.64;1780913;80;21151;-78
2022/07/25 00:41:08;;;;;;;19.07;12.85;;;;;;;21.29;100.00;100262.71;1780767;80;21079;-80
2022/07/25 00:43:35;;;;;;;16.50;13.60;;;;;;;21.34;100.00;100270.13;1780779;80;21019;-79
2022/07/25 00:46:03;;;;;;;17.40;13.18;;;;;;;21.41;100.00;100271.19;1780902;80;20995;-79
2022/07/25 00:48:30;;;;;;;21.93;13.35;;;;;;;21.43;100.00;100265.84;1780763;80;21050;-80
2022/07/25 00:50:58;;;;;;;15.93;13.35;;;;;;;21.47;100.00;100267.20;1800714;78;20995;-80
2022/07/25 00:53:25;;;;;;;17.62;14.10;;;;;;;21.54;100.00;100269.60;1783214;80;21071;-80
2022/07/25 00:55:54;;;;;;;17.90;13.83;;;;;;;21.46;100.00;100268.19;1783190;79;21023;-80
2022/07/25 00:58:21;;;;;;;16.87;13.75;;;;;;;21.45;100.00;100269.14;1783536;80;21507;-80
2022/07/25 01:00:48;;;;;;;23.55;13.48;;;;;;;21.52;100.00;100264.50;1783316;80;21023;-80
2022/07/25 01:03:17;;;;;;;17.07;13.35;;;;;;;21.54;100.00;100265.67;1783417;80;21062;-80
2022/07/25 01:05:44;;;;;;;18.48;12.90;;;;;;;21.56;100.00;100268.97;1783364;80;21023;-80
2022/07/25 01:08:12;;;;;;;17.07;13.30;;;;;;;21.58;100.00;100259.17;1783153;80;21035;-79
2022/07/25 01:10:40;;;;;;;16.30;12.93;;;;;;;21.72;100.00;100263.93;1783657;80;21083;-77
2022/07/25 01:13:07;;;;;;;15.03;12.70;;;;;;;21.69;100.00;100262.89;1783139;80;21032;-80
2022/07/25 01:15:35;;;;;;;16.12;12.63;;;;;;;21.73;100.00;100256.89;1783217;80;21023;-80
2022/07/25 01:18:02;;;;;;;16.27;12.73;;;;;;;21.78;100.00;100257.29;1783247;79;21004;-80
2022/07/25 01:20:31;;;;;;;14.15;12.58;;;;;;;21.83;100.00;100255.53;1783411;80;21023;-80
2022/07/25 01:23:00;;;;;;;14.00;12.37;;;;;;;21.85;100.00;100250.97;1783829;80;21184;-78
2022/07/25 01:25:27;;;;;;;16.10;13.10;;;;;;;21.89;100.00;100256.25;1783277;80;21000;-79
2022/07/25 01:27:56;;;;;;;14.68;12.23;;;;;;;21.94;100.00;100254.84;1783378;80;21012;-80
2022/07/25 01:30:25;;;;;;;15.65;12.55;;;;;;;22.00;100.00;100255.56;1783205;80;21058;-79
2022/07/25 01:32:53;;;;;;;15.88;12.70;;;;;;;22.03;100.00;100247.06;1783432;80;21003;-80
2022/07/25 01:35:22;;;;;;;15.85;12.10;;;;;;;22.01;100.00;100251.95;1783244;80;21063;-80
2022/07/25 01:37:50;;;;;;;15.58;11.68;;;;;;;22.08;100.00;100243.50;1783666;80;21035;-80
2022/07/25 01:40:17;;;;;;;15.68;11.78;;;;;;;22.11;100.00;100247.14;1761639;80;21528;-80
2022/07/25 01:42:45;;;;;;;15.98;11.33;;;;;;;22.09;100.00;100245.16;1783427;80;21038;-79
2022/07/25 01:45:13;;;;;;;18.17;11.48;;;;;;;22.05;100.00;100245.94;1783545;80;21031;-80
2022/07/25 01:47:42;;;;;;;13.75;11.50;;;;;;;22.08;100.00;100234.32;1783261;80;21531;-80
2022/07/25 01:50:10;;;;;;;16.85;11.48;;;;;;;22.15;100.00;100238.01;1754544;82;22007;-80
2022/07/25 01:52:38;;;;;;;16.10;12.13;;;;;;;21.98;100.00;100235.23;1773109;79;21004;-78
2022/07/25 01:55:08;;;;;;;15.65;11.78;;;;;;;21.97;100.00;100233.56;1786177;80;21528;-80
2022/07/25 01:57:36;;;;;;;15.58;12.23;;;;;;;22.03;100.00;100233.47;1786304;80;20999;-80
2022/07/25 02:00:08;;;;;;;15.93;12.23;;;;;;;22.06;100.00;100229.71;1786588;80;21069;-80
2022/07/25 02:02:43;;;;;;;16.45;12.60;;;;;;;22.06;100.00;100231.88;1786289;80;21047;-81
2022/07/25 02:05:14;;;;;;;15.93;12.10;;;;;;;21.92;100.00;100235.01;1786436;80;21016;-80
2022/07/25 02:07:42;;;;;;;15.78;12.18;;;;;;;21.97;100.00;100235.37;1786528;80;21046;-79
2022/07/25 02:10:10;;;;;;;16.05;12.43;;;;;;;22.02;100.00;100237.08;1766272;80;21050;-81
2022/07/25 02:12:51;;;;;;;16.23;11.53;;;;;;;22.07;100.00;100251.03;1786283;79;21003;-80
2022/07/25 02:15:27;;;;;;;17.73;12.58;;;;;;;22.01;100.00;100259.00;1745338;80;20995;-80
2022/07/25 02:17:56;;;;;;;15.88;12.37;;;;;;;21.75;100.00;100251.83;1786534;79;21051;-81
2022/07/25 02:20:23;;;;;;;14.85;12.30;;;;;;;21.77;100.00;100247.77;1786228;80;20987;-79
2022/07/25 02:22:50;;;;;;;16.42;12.70;;;;;;;21.71;100.00;100249.66;1786348;80;21000;-80
2022/07/25 02:25:18;;;;;;;17.90;12.50;;;;;;;21.65;100.00;100264.65;1786345;80;21066;-78
2022/07/25 02:27:45;;;;;;;17.35;12.40;;;;;;;21.69;100.00;100252.41;1786909;80;21043;-80
2022/07/25 02:30:13;;;;;;;15.95;12.70;;;;;;;21.77;100.00;100251.20;1786747;80;21022;-80
2022/07/25 02:32:42;;;;;;;19.67;12.98;;;;;;;21.80;100.00;100256.16;1786793;80;21023;-78
2022/07/25 02:35:10;;;;;;;14.83;13.05;;;;;;;21.77;100.00;100248.58;1787117;80;21531;-79
2022/07/25 02:37:37;;;;;;;17.85;13.53;;;;;;;21.81;100.00;100253.86;1787035;80;21058;-80
2022/07/25 02:40:06;;;;;;;16.37;12.80;;;;;;;21.81;100.00;100242.08;1786472;80;21087;-81
2022/07/25 02:42:34;;;;;;;15.38;12.53;;;;;;;21.86;100.00;100240.81;1786955;80;21027;-80
2022/07/25 02:45:04;;;;;;;17.62;12.85;;;;;;;21.93;100.00;100240.57;1786447;80;21016;-80
2022/07/25 02:47:32;;;;;;;16.00;13.50;;;;;;;22.01;100.00;100239.34;1786591;80;21047;-80
2022/07/25 02:49:59;;;;;;;16.73;12.75;;;;;;;22.02;100.00;100241.00;1788307;79;21031;-80
2022/07/25 02:52:26;;;;;;;14.35;12.78;;;;;;;22.02;100.00;100231.83;1809478;79;21094;-80
2022/07/25 02:54:55;;;;;;;17.50;12.85;;;;;;;22.09;100.00;100236.80;1774007;81;21055;-80
2022/07/25 02:57:22;;;;;;;14.87;12.98;;;;;;;22.10;100.00;100231.91;1809560;79;21035;-81
2022/07/25 02:59:49;;;;;;;19.87;12.80;;;;;;;22.14;100.00;100240.28;1809552;79;21519;-81
2022/07/25 03:02:17;;;;;;;16.32;12.37;;;;;;;22.17;100.00;100239.50;1809464;79;21092;-80
2022/07/25 03:04:44;;;;;;;14.75;13.20;;;;;;;22.23;100.00;100235.95;1809643;79;21070;-80
2022/07/25 03:07:12;;;;;;;15.63;12.98;;;;;;;22.25;100.00;100240.59;1809567;79;21009;-80
2022/07/25 03:09:39;;;;;;;16.45;12.63;;;;;;;22.24;100.00;100238.94;1809582;79;21070;-80
2022/07/25 03:12:06;;;;;;;16.45;13.40;;;;;;;22.35;100.00;100245.27;1809582;79;21058;-81
2022/07/25 03:14:34;;;;;;;16.02;13.90;;;;;;;22.35;100.00;100244.78;1809556;79;21024;-80
2022/07/25 03:17:01;;;;;;;19.75;13.72;;;;;;;22.33;100.00;100255.09;1809122;79;21543;-79
2022/07/25 03:19:29;;;;;;;18.92;14.15;;;;;;;22.35;100.00;100244.78;1809332;79;21223;-81
2022/07/25 03:21:56;;;;;;;16.62;13.62;;;;;;;22.35;100.00;100247.89;1809367;79;21003;-79
2022/07/25 03:24:23;;;;;;;18.75;13.68;;;;;;;22.43;100.00;100249.28;1809384;79;21479;-80
2022/07/25 03:26:51;;;;;;;15.95;13.25;;;;;;;22.52;100.00;100250.98;1809271;79;21007;-81
2022/07/25 03:29:18;;;;;;;18.35;14.00;;;;;;;22.56;100.00;100253.63;1809836;79;22159;-80
2022/07/25 03:31:46;;;;;;;20.15;14.23;;;;;;;22.62;100.00;100250.90;1809397;79;21023;-81
2022/07/25 03:34:13;;;;;;;18.52;13.83;;;;;;;22.68;100.00;100247.66;1809292;79;21084;-79
2022/07/25 03:36:41;;;;;;;19.73;13.80;;;;;;;22.77;100.00;100243.32;1809080;78;21071;-80
2022/07/25 03:39:08;;;;;;;18.80;14.70;;;;;;;22.80;100.00;100241.69;1809481;79;21039;-81
2022/07/25 03:41:36;;;;;;;16.23;13.45;;;;;;;22.85;100.00;100241.22;1809806;79;21491;-80
2022/07/25 03:44:04;;;;;;;15.85;13.90;;;;;;;22.87;100.00;100249.30;1809266;79;21496;-80
2022/07/25 03:46:31;;;;;;;19.23;14.10;;;;;;;22.97;100.00;100238.67;1809488;79;21035;-80
2022/07/25 03:48:59;;;;;;;17.60;13.70;;;;;;;22.92;100.00;100236.52;1809468;79;21051;-81
2022/07/25 03:51:27;;;;;;;18.27;13.50;;;;;;;23.03;100.00;100237.27;1809281;79;21099;-80
2022/07/25 03:54:07;;;;;;;20.20;14.33;;;;;;;23.08;100.00;100237.64;1809616;79;21055;-80
2022/07/25 03:56:42;;;;;;;19.15;13.88;;;;;;;23.12;100.00;100241.59;1809113;79;21062;-81
2022/07/25 03:59:15;;;;;;;16.00;13.48;;;;;;;23.20;100.00;100248.20;1809549;79;21066;-80
2022/07/25 04:01:44;;;;;;;19.42;13.58;;;;;;;23.18;100.00;100242.28;1809366;79;21043;-81
2022/07/25 04:04:12;;;;;;;15.53;13.08;;;;;;;23.12;100.00;100237.16;1773981;80;21023;-79
2022/07/25 04:06:40;;;;;;;17.48;12.53;;;;;;;23.25;100.00;100236.72;1809173;79;21068;-80
2022/07/25 04:09:10;;;;;;;15.25;13.40;;;;;;;23.29;100.00;100240.69;1774126;81;21166;-79
2022/07/25 04:11:38;;;;;;;16.32;13.43;;;;;;;23.32;100.00;100244.83;1809633;79;20983;-80
2022/07/25 04:14:06;;;;;;;16.67;13.50;;;;;;;23.25;100.00;100247.73;1785261;79;21480;-79
2022/07/25 04:16:34;;;;;;;15.50;13.88;;;;;;;23.24;100.00;100241.66;1773824;80;21039;-80
2022/07/25 04:19:04;;;;;;;22.65;13.60;;;;;;;23.40;100.00;100250.92;1809231;79;21076;-80
2022/07/25 04:21:33;;;;;;;16.62;13.60;;;;;;;23.48;100.00;100255.88;1809342;79;21047;-79
2022/07/25 04:24:00;;;;;;;16.85;13.48;;;;;;;23.56;100.00;100248.87;1809696;79;20991;-80
2022/07/25 04:26:29;;;;;;;16.80;13.43;;;;;;;23.61;100.00;100251.01;1809535;79;20999;-80
2022/07/25 04:28:57;;;;;;;16.32;12.88;;;;;;;23.59;100.00;100247.22;1810346;79;20975;-80
2022/07/25 04:31:25;;;;;;;17.55;14.07;;;;;;;23.64;100.00;100244.14;1810599;79;21054;-77
2022/07/25 04:33:52;;;;;;;15.15;12.98;;;;;;;23.72;100.00;100240.69;1811154;79;21019;-79
2022/07/25 04:36:21;;;;;;;17.52;13.40;;;;;;;23.81;100.00;100238.96;1807573;78;21051;-80
2022/07/25 04:38:50;;;;;;;16.48;13.50;;;;;;;23.89;100.00;100236.34;1806186;79;21042;-80
2022/07/25 04:41:19;;;;;;;16.20;13.35;;;;;;;23.99;100.00;100244.41;1806373;79;21004;-80
2022/07/25 04:43:55;;;;;;;17.07;13.62;;;;;;;24.09;100.00;100242.95;1790026;78;21034;-80
2022/07/25 04:46:21;;;;;;;19.17;14.18;;;;;;;24.19;100.00;100239.69;1804324;77;21708;-79
2022/07/25 04:48:50;;;;;;;18.15;14.18;;;;;;;24.33;100.00;100238.69;1795508;79;21106;-79
2022/07/25 04:51:18;;;;;;;17.55;13.78;;;;;;;24.42;100.00;100242.98;1808002;77;21014;-80
2022/07/25 04:53:46;;;;;;;20.25;14.70;;;;;;;24.62;100.00;100242.69;1790620;79;21042;-80
2022/07/25 04:56:15;;;;;;;17.85;14.78;;;;;;;24.78;100.00;100249.25;1813860;79;22125;-80
2022/07/25 04:58:42;;;;;;;21.17;14.93;;;;;;;24.62;100.00;100243.50;1817139;79;21006;-78
2022/07/25 05:01:10;;;;;;;21.57;15.28;;;;;;;24.74;100.00;100244.00;1815329;79;20987;-80
2022/07/25 05:03:37;;;;;;;22.10;15.63;;;;;;;24.85;100.00;100247.58;1815070;79;21062;-79
2022/07/25 05:06:07;;;;;;;22.27;14.73;;;;;;;24.93;100.00;100252.83;1815865;79;21041;-78
2022/07/25 05:08:34;;;;;;;18.30;14.53;;;;;;;24.86;100.00;100245.29;1814855;79;20983;-80
2022/07/25 05:11:01;;;;;;;20.30;15.25;;;;;;;24.92;100.00;100247.73;1817046;79;21094;-79
2022/07/25 05:13:29;;;;;;;23.67;14.78;;;;;;;24.94;100.00;100238.69;1813600;79;21058;-80
2022/07/25 05:15:56;;;;;;;21.75;14.68;;;;;;;24.83;100.00;100247.43;1814420;79;21028;-80
2022/07/25 05:18:25;;;;;;;20.15;14.47;;;;;;;24.87;100.00;100249.55;1817828;79;21030;-79
2022/07/25 05:20:52;;;;;;;19.40;14.30;;;;;;;24.97;100.00;100258.09;1807044;79;20988;-80
2022/07/25 05:23:21;;;;;;;19.02;13.88;;;;;;;25.01;100.00;100248.55;1810071;79;21431;-80
2022/07/25 05:25:48;;;;;;;18.92;13.60;;;;;;;24.97;100.00;100246.74;1817944;79;21053;-80
2022/07/25 05:28:16;;;;;;;16.87;14.05;;;;;;;25.07;100.00;100246.56;1817945;79;21038;-80
2022/07/25 05:30:44;;;;;;;18.10;13.18;;;;;;;25.14;100.00;100251.00;1817010;79;21104;-80
2022/07/25 05:33:11;;;;;;;17.50;13.30;;;;;;;25.19;100.00;100247.34;1818246;79;21523;-80
2022/07/25 05:35:40;;;;;;;15.23;12.98;;;;;;;25.28;100.00;100236.81;1817908;79;21085;-80
2022/07/25 05:38:07;;;;;;;15.55;13.05;;;;;;;25.31;100.00;100238.61;1818866;79;21105;-79
2022/07/25 05:40:35;;;;;;;18.57;13.70;;;;;;;25.32;100.00;100240.23;1817078;79;21042;-80
2022/07/25 05:43:02;;;;;;;19.73;14.28;;;;;;;25.36;100.00;100244.18;1817173;79;20939;-80
2022/07/25 05:45:30;;;;;;;24.35;14.43;;;;;;;25.45;100.00;100241.55;1815890;79;21486;-80
2022/07/25 05:47:58;;;;;;;20.95;14.43;;;;;;;25.48;100.00;100245.13;1810610;78;21414;-80
2022/07/25 05:50:26;;;;;;;20.35;13.80;;;;;;;25.48;100.00;100245.13;1815148;79;21132;-80
2022/07/25 05:52:53;;;;;;;21.60;14.10;;;;;;;25.56;100.00;100237.19;1820560;78;20979;-79
2022/07/25 05:55:21;;;;;;;19.42;14.05;;;;;;;25.56;100.00;100237.19;1822191;78;20963;-80
2022/07/25 05:57:49;;;;;;;17.35;13.45;;;;;;;25.62;100.00;100228.59;1820442;78;21003;-81
2022/07/25 06:00:17;;;;;;;20.95;14.83;;;;;;;25.57;100.00;100233.07;1812066;78;21416;-80
2022/07/25 06:02:44;;;;;;;19.05;14.73;;;;;;;25.54;100.00;100225.50;1818841;78;21419;-81
2022/07/25 06:05:12;;;;;;;19.98;14.65;;;;;;;25.54;100.00;100225.50;1823380;78;21030;-79
2022/07/25 06:07:40;;;;;;;19.55;14.40;;;;;;;25.68;100.00;100227.91;1819991;78;21034;-79
2022/07/25 06:10:08;;;;;;;23.52;13.60;;;;;;;25.73;100.00;100227.37;1821559;78;20979;-80
2022/07/25 06:12:36;;;;;;;18.57;14.05;;;;;;;25.79;100.00;100226.67;1818485;78;21001;-80
2022/07/25 06:15:07;;;;;;;20.92;14.00;;;;;;;25.86;100.00;100221.55;1816806;79;21495;-80
2022/07/25 06:17:34;;;;;;;17.90;13.53;;;;;;;25.94;100.00;100224.17;1816678;79;20993;-81
2022/07/25 06:20:01;;;;;;;17.10;14.00;;;;;;;26.03;100.00;100217.02;1815944;79;21014;-80
2022/07/25 06:22:30;;;;;;;15.58;13.98;;;;;;;26.08;100.00;100212.86;1816340;79;20990;-80
2022/07/25 06:24:57;;;;;;;16.90;13.53;;;;;;;26.04;100.00;100220.80;1816932;79;20978;-79
2022/07/25 06:27:25;;;;;;;19.67;13.60;;;;;;;25.94;100.00;100218.89;1817049;79;21011;-80
2022/07/25 06:29:52;;;;;;;16.35;12.65;;;;;;;25.82;100.00;100217.12;1816743;79;21074;-81
2022/07/25 06:32:21;;;;;;;17.48;13.72;;;;;;;25.84;100.00;100213.81;1817098;79;20979;-80
2022/07/25 06:34:50;;;;;;;18.75;13.80;;;;;;;25.88;100.00;100210.33;1816643;79;21046;-79
2022/07/25 06:37:17;;;;;;;15.90;13.62;;;;;;;25.81;100.00;100204.91;1789219;78;21020;-80
2022/07/25 06:39:45;;;;;;;19.27;13.60;;;;;;;25.82;100.00;100205.25;1774846;80;21051;-80
2022/07/25 06:42:12;;;;;;;19.75;13.40;;;;;;;25.84;100.00;100199.31;1775285;80;21043;-77
2022/07/25 06:44:39;;;;;;;19.00;13.20;;;;;;;25.89;100.00;100193.50;1774903;80;21044;-80
2022/07/25 06:47:11;;;;;;;18.62;12.88;;;;;;;25.97;100.00;100188.20;1775158;80;21013;-79
2022/07/25 06:49:39;;;;;;;21.77;13.93;;;;;;;26.06;100.00;100199.02;1776692;80;21039;-80
2022/07/25 06:52:07;;;;;;;20.20;12.90;;;;;;;26.17;100.00;100197.78;1777242;80;21039;-80
2022/07/25 06:54:35;;;;;;;19.50;13.28;;;;;;;26.25;100.00;100207.45;1782349;80;21074;-80
2022/07/25 06:57:03;;;;;;;18.73;13.60;;;;;;;26.30;100.00;100211.20;1773723;80;20996;-78
2022/07/25 06:59:32;;;;;;;17.42;13.65;;;;;;;26.35;100.00;100219.39;1797829;79;20995;-81
2022/07/25 07:01:59;;;;;;;22.20;14.00;;;;;;;26.09;100.00;100224.22;1815829;79;21094;-80
2022/07/25 07:04:27;;;;;;;16.00;13.45;;;;;;;25.98;100.00;100220.19;1816472;79;21027;-80
2022/07/25 07:06:54;;;;;;;19.20;13.38;;;;;;;26.01;100.00;100207.95;1817342;79;21042;-80
2022/07/25 07:09:22;;;;;;;17.65;13.83;;;;;;;25.99;100.00;100211.27;1817332;79;21062;-80
2022/07/25 07:11:49;;;;;;;16.25;13.68;;;;;;;25.94;100.00;100210.98;1817319;79;21039;-80
2022/07/25 07:14:16;;;;;;;16.57;13.20;;;;;;;25.85;100.00;100213.30;1817310;79;21090;-80
2022/07/25 07:16:45;;;;;;;16.02;13.68;;;;;;;26.01;100.00;100206.63;1816406;79;21031;-81
2022/07/25 07:19:13;;;;;;;15.98;13.25;;;;;;;26.19;100.00;100199.74;1816889;79;21066;-80
2022/07/25 07:21:41;;;;;;;19.90;13.70;;;;;;;26.38;100.00;100205.86;1816895;79;21026;-80
2022/07/25 07:24:09;;;;;;;24.25;12.88;;;;;;;26.45;100.00;100207.28;1816136;79;21071;-80
2022/07/25 07:26:37;;;;;;;18.73;14.00;;;;;;;26.50;100.00;100213.33;1816662;79;21538;-80
2022/07/25 07:29:04;;;;;;;16.12;12.53;;;;;;;26.58;100.00;100204.89;1793408;79;21050;-81
2022/07/25 07:31:32;;;;;;;15.20;12.15;;;;;;;26.66;100.00;100211.08;1816084;79;21066;-81
2022/07/25 07:33:59;;;;;;;14.50;13.10;;;;;;;26.63;100.00;100214.09;1816072;79;21074;-80
2022/07/25 07:36:36;;;;;;;16.07;13.72;;;;;;;26.56;100.00;100227.13;1815708;79;21086;-81
2022/07/25 07:39:12;;;;;;;16.80;14.07;;;;;;;26.38;100.00;100223.52;1814607;79;20991;-81
2022/07/25 07:41:39;;;;;;;19.23;14.80;;;;;;;25.98;100.00;100222.31;1816216;79;21011;-80
2022/07/25 07:44:06;;;;;;;16.10;14.33;;;;;;;26.25;100.00;100223.28;1816399;79;22154;-80
2022/07/25 07:46:34;;;;;;;18.55;13.98;;;;;;;26.39;100.00;100219.87;1816097;79;21026;-79
2022/07/25 07:49:12;;;;;;;19.85;13.65;;;;;;;26.61;100.00;100221.38;1815995;79;21101;-79
2022/07/25 07:51:43;;;;;;;22.00;14.07;;;;;;;26.85;100.00;100223.77;1787505;79;21019;-80
2022/07/25 07:57:10;;;;;;;18.85;14.05;;;;;;;26.85;100.00;100226.41;1818552;79;21823;-81
2022/07/25 07:59:38;;;;;;;20.10;15.03;;;;;;;26.84;100.00;100228.72;1817811;79;21109;-81
2022/07/25 08:02:06;;;;;;;18.17;14.87;;;;;;;26.86;100.00;100233.31;1815665;79;21050;-79
2022/07/25 08:04:35;;;;;;;18.20;13.80;;;;;;;26.85;100.00;100226.91;1818981;79;21091;-81
2022/07/25 08:07:03;;;;;;;14.25;12.85;;;;;;;27.22;100.00;100226.00;1818679;79;21096;-82
2022/07/25 08:09:31;;;;;;;15.45;13.22;;;;;;;27.49;100.00;100230.32;1818693;79;20987;-79
2022/07/25 08:11:59;;;;;;;14.33;12.68;;;;;;;27.61;100.00;100235.45;1819043;79;22131;-81
2022/07/25 08:14:28;;;;;;;13.65;12.25;;;;;;;27.86;100.00;100243.03;1818428;79;21093;-82
2022/07/25 08:17:21;;;;;;;;;;;;;;;;;;;;;
2022/07/25 08:19:41;;;;;;;14.45;13.08;;;;;;;28.07;100.00;100243.09;1806245;79;20995;-80
2022/07/25 08:22:16;;;;;;;13.75;12.30;;;;;;;28.25;100.00;100248.47;1786931;79;21074;-79
2022/07/25 08:25:04;;;;;;;13.58;12.23;;;;;;;28.09;100.00;100249.02;1817159;79;22401;-79
2022/07/25 08:27:33;;;;;;;13.35;11.88;;;;;;;28.50;100.00;100249.72;1759765;79;21577;-81
2022/07/25 08:30:15;;;;;;;12.95;11.63;;;;;;;28.40;100.00;100257.14;1787267;79;21580;-81
2022/07/25 08:33:09;;;;;;;15.88;12.05;;;;;;;28.10;100.00;100253.32;1815869;78;20999;-80
2022/07/25 08:35:47;;;;;;;;;;;;;;;;;;;;;
2022/07/25 08:38:42;;;;;;;13.75;12.37;;;;;;;28.31;100.00;100247.70;1819047;79;21079;-79
2022/07/25 08:41:06;;;;;;;13.80;12.33;;;;;;;28.46;100.00;100248.94;1785687;79;21023;-78
2022/07/25 08:43:42;;;;;;;13.13;11.93;;;;;;;28.61;100.00;100248.39;1819702;79;21046;-80
2022/07/25 08:46:27;;;;;;;12.80;11.60;;;;;;;28.47;100.00;100255.38;1819384;79;21562;-80
2022/07/25 08:49:09;;;;;;;12.97;11.63;;;;;;;28.56;100.00;100248.14;1819172;79;21026;-80
2022/07/25 08:51:43;;;;;;;13.43;11.60;;;;;;;28.58;100.00;100251.92;1799417;79;21023;-80
2022/07/25 08:54:25;;;;;;;12.05;10.85;;;;;;;28.64;100.00;100255.13;1779114;80;21099;-81
2022/07/25 08:57:10;;;;;;;12.85;11.12;;;;;;;28.70;100.00;100251.20;1769626;80;21627;-80
2022/07/25 08:59:59;;;;;;;9.70;8.45;;;;;;;28.51;100.00;100256.66;1776102;80;21829;-79
2022/07/25 09:02:59;;;;;;;9.90;8.90;;;;;;;28.46;100.00;100255.05;1761258;79;21063;-81
2022/07/25 09:05:39;;;;;;;13.78;9.43;;;;;;;28.13;100.00;100256.09;1793250;80;21523;-81
2022/07/25 09:08:40;;;;;;;10.90;9.75;;;;;;;28.25;100.00;100244.50;1804108;79;21016;-80
2022/07/25 09:11:01;;;;;;;10.75;9.65;;;;;;;28.28;100.00;100246.23;1768659;80;21479;-78
2022/07/25 09:13:39;;;;;;;10.00;9.00;;;;;;;28.25;100.00;100244.50;1786159;80;21051;-79
2022/07/25 09:16:12;;;;;;;10.58;9.33;;;;;;;28.55;100.00;100241.22;1784866;80;21555;-79
2022/07/25 09:18:46;;;;;;;9.75;8.88;;;;;;;28.60;100.00;100246.74;1766486;80;21062;-80
2022/07/25 09:21:14;;;;;;;12.25;9.00;;;;;;;28.59;100.00;100240.30;1767905;80;20995;-79
2022/07/25 09:23:41;;;;;;;11.43;9.55;;;;;;;28.56;100.00;100241.00;1786385;80;21523;-79
2022/07/25 09:26:13;;;;;;;12.68;8.90;;;;;;;28.80;100.00;100246.89;1786538;80;21155;-81
2022/07/25 09:29:00;;;;;;;10.72;9.05;;;;;;;28.62;100.00;100246.05;1787097;80;21533;-80
2022/07/25 09:31:33;;;;;;;10.23;8.95;;;;;;;28.54;100.00;100243.02;1742699;80;21554;-80
2022/07/25 09:34:06;;;;;;;10.43;8.73;;;;;;;28.80;100.00;100240.27;1786984;80;21557;-80
2022/07/25 09:36:30;;;;;;;12.00;9.68;;;;;;;28.72;100.00;100243.06;1786408;79;21051;-79
2022/07/25 09:39:00;;;;;;;13.70;9.50;;;;;;;28.80;100.00;100243.43;1786686;80;21027;-79
2022/07/25 09:41:37;;;;;;;13.28;9.20;;;;;;;28.80;100.00;100240.27;1786555;80;21052;-80
2022/07/25 09:44:29;;;;;;;11.75;9.53;;;;;;;28.83;100.00;100236.41;1786660;80;20984;-80
2022/07/25 09:46:49;;;;;;;12.80;9.28;;;;;;;28.94;100.00;100231.91;1785091;80;21055;-80
2022/07/25 09:49:18;;;;;;;13.22;9.75;;;;;;;29.13;100.00;100224.58;1786522;80;21062;-80
2022/07/25 09:51:46;;;;;;;11.97;10.00;;;;;;;29.44;100.00;100227.77;1799182;79;21463;-79
2022/07/25 09:54:15;;;;;;;13.15;10.30;;;;;;;28.95;100.00;100225.09;1821138;78;21979;-80
2022/07/25 09:56:42;;;;;;;13.90;10.68;;;;;;;28.91;100.00;100215.89;1822396;79;21095;-79
2022/07/25 09:59:09;;;;;;;12.88;10.13;;;;;;;29.43;100.00;100215.03;1821928;79;21049;-79
2022/07/25 10:01:43;;;;;;;14.23;10.65;;;;;;;30.16;100.00;100217.06;1821973;79;21002;-79
2022/07/25 10:04:24;;;;;;;13.70;10.63;;;;;;;29.84;100.00;100208.84;1822422;78;20975;-79
2022/07/25 10:07:05;;;;;;;12.90;10.43;;;;;;;30.66;100.00;100212.69;1775737;79;21043;-78
2022/07/25 10:09:33;;;;;;;11.88;10.28;;;;;;;31.09;98.13;100209.02;1781104;80;21434;-80
2022/07/25 10:12:09;;;;;;;14.03;10.45;;;;;;;30.59;96.80;100211.87;1777881;80;20987;-77
2022/07/25 10:14:38;;;;;;;13.98;10.28;;;;;;;30.64;95.46;100210.75;1748937;81;21515;-78
2022/07/25 10:17:07;;;;;;;16.12;10.55;;;;;;;30.42;94.99;100217.61;1745235;81;21050;-79
2022/07/25 10:19:44;;;;;;;17.12;10.75;;;;;;;30.00;99.28;100209.49;1822054;78;20992;-76
2022/07/25 10:22:12;;;;;;;12.15;10.72;;;;;;;29.90;100.00;100205.38;1818491;78;20976;-77
2022/07/25 10:24:45;;;;;;;19.02;11.15;;;;;;;29.81;100.00;100208.45;1817482;78;21018;-77
2022/07/25 10:27:20;;;;;;;31.30;14.63;;;;;;;29.38;100.00;100214.83;1821941;78;20999;-72
2022/07/25 10:29:54;;;;;;;31.65;14.65;;;;;;;25.67;100.00;100174.88;1825921;77;21096;-74
2022/07/25 11:04:14;;;;;;;54.08;18.80;;;;;;;26.23;100.00;99660.17;1827499;78;20975;-76
2022/07/25 11:13:11;;;;;;;39.25;33.13;;;;;;;25.85;100.00;99977.31;1809829;79;21054;-77
2022/07/25 12:02:38;;;;;;;40.48;35.08;;;;;;;26.77;100.00;100107.66;1823657;78;21101;-79
2022/07/25 13:38:54;;;;;;;32.45;28.75;;;;;;;30.69;100.00;100139.19;1807627;79;21031;-78
2022/07/25 14:21:57;;;;;;;3.90;3.60;;;;;;;29.94;100.00;100138.13;1790711;80;21016;-78
2022/07/25 14:32:08;;;;;;;5.70;4.40;;;;;;;29.23;100.00;100127.98;1826171;78;21078;-76
2022/07/25 14:49:12;;;;;;;6.12;4.90;;;;;;;29.05;100.00;100125.33;1826412;78;21066;-78
2022/07/25 14:52:03;;;;;;;5.65;3.90;;;;;;;29.14;100.00;100127.35;1775444;80;21560;-78
2022/07/25 15:05:45;;;;;;;4.42;4.03;;;;;;;30.15;100.00;100145.90;1787910;80;21011;-78
2022/07/25 15:14:52;;;;;;;4.55;3.60;;;;;;;31.47;93.60;100147.10;1781898;80;21047;-83
2022/07/25 15:19:19;;;;;;;3.52;2.70;;;;;;;31.41;92.96;100151.08;1775442;80;21026;-76
2022/07/25 15:22:32;;;;;;;2.87;2.50;;;;;;;30.72;93.93;100155.54;1779040;80;21027;-80
2022/07/25 15:24:59;;;;;;;3.70;2.87;;;;;;;30.20;97.01;100159.06;1820377;78;21451;-80
2022/07/25 15:44:39;;;;;;;3.50;3.20;;;;;;;30.20;97.01;100159.06;1821136;78;21039;-78
2022/07/25 15:49:20;;;;;;;5.62;4.28;;;;;;;30.20;97.01;100159.06;1820456;79;20999;-80
2022/07/25 16:05:09;;;;;;;5.33;4.67;;;;;;;30.20;100.00;114090.72;1820451;79;21042;-82
2022/07/25 16:23:56;;;;;;;5.65;5.15;;;;;;;30.20;97.01;100159.06;1820263;79;21000;-82
2022/07/25 16:26:25;;;;;;;7.33;6.08;;;;;;;30.20;97.01;100159.06;1820066;79;21042;-82
2022/07/25 16:28:53;;;;;;;6.58;5.55;;;;;;;30.20;97.01;100159.06;1820730;79;21027;-81
2022/07/25 16:32:12;;;;;;;8.23;6.00;;;;;;;30.20;97.01;100159.06;1820830;77;21085;-82
2022/07/25 16:39:15;;;;;;;6.45;5.85;;;;;;;30.20;100.00;114090.72;1805203;79;21090;-81
